createdAt,value
2023-04-11T04:19:55.462Z,100.00
2023-04-11T04:23:00.250Z,100.00
2023-04-11T04:26:05.610Z,100.00
2023-04-11T04:29:10.258Z,100.00
2023-04-11T04:32:23.163Z,100.00
2023-04-11T04:35:27.166Z,100.00
2023-04-11T04:38:30.940Z,100.00
2023-04-11T04:41:36.306Z,100.00
2023-04-11T04:44:39.095Z,100.00
2023-04-11T04:47:42.700Z,100.00
2023-04-11T04:50:45.996Z,100.00
2023-04-11T04:53:49.089Z,100.00
2023-04-11T04:56:51.577Z,100.00
2023-04-11T04:59:58.553Z,100.00
2023-04-11T05:03:05.662Z,100.00
2023-04-11T05:06:09.716Z,100.00
2023-04-11T05:09:14.997Z,100.00
2023-04-11T05:12:26.251Z,100.00
2023-04-11T05:15:29.444Z,100.00
2023-04-11T05:18:32.977Z,100.00
2023-04-11T05:21:40.064Z,100.00
2023-04-11T05:24:45.168Z,100.00
2023-04-11T05:27:47.945Z,100.00
2023-04-11T05:30:51.325Z,100.00
2023-04-11T05:33:56.548Z,100.00
2023-04-11T05:37:01.381Z,100.00
2023-04-11T05:40:04.364Z,100.00
2023-04-11T05:43:08.387Z,100.00
2023-04-11T05:46:12.824Z,100.00
2023-04-11T05:49:16.152Z,100.00
2023-04-11T05:52:18.802Z,100.00
2023-04-11T05:55:21.734Z,100.00
2023-04-11T05:58:25.177Z,100.00
2023-04-11T06:01:28.038Z,100.00
2023-04-11T06:04:31.339Z,94.52
2023-04-11T06:07:35.960Z,88.26
2023-04-11T06:10:38.934Z,88.86
2023-04-11T06:13:41.521Z,88.56
2023-04-11T06:16:44.357Z,85.74
2023-04-11T06:19:47.439Z,85.15
2023-04-11T06:22:52.319Z,87.67
2023-04-11T06:25:54.990Z,84.70
2023-04-11T06:28:57.822Z,83.02
2023-04-11T06:32:00.795Z,83.75
2023-04-11T06:35:03.968Z,81.10
2023-04-11T06:38:06.466Z,77.14
2023-04-11T06:41:09.379Z,77.65
2023-04-11T06:44:12.382Z,78.72
2023-04-11T06:47:15.314Z,79.59
2023-04-11T06:50:18.501Z,73.61
2023-04-11T06:53:21.613Z,70.12
2023-04-11T06:56:24.276Z,68.16
2023-04-11T06:59:27.485Z,69.37
2023-04-11T07:02:30.288Z,69.58
2023-04-11T07:05:33.953Z,67.16
2023-04-11T07:08:36.857Z,69.36
2023-04-11T07:11:39.906Z,66.28
2023-04-11T07:14:42.478Z,64.54
2023-04-11T07:17:47.496Z,60.43
2023-04-11T07:20:52.471Z,54.68
2023-04-11T07:23:55.707Z,51.90
2023-04-11T07:26:58.945Z,47.94
2023-04-11T07:30:03.170Z,46.26
2023-04-11T07:33:06.322Z,45.58
2023-04-11T07:36:09.747Z,44.49
2023-04-11T07:39:14.896Z,46.16
2023-04-11T07:42:17.964Z,46.99
2023-04-11T07:45:21.401Z,51.22
2023-04-11T07:48:26.428Z,54.74
2023-04-11T07:51:29.080Z,53.06
2023-04-11T07:54:32.842Z,53.76
2023-04-11T07:57:35.420Z,52.50
2023-04-11T08:00:38.767Z,57.39
2023-04-11T08:03:41.764Z,58.67
2023-04-11T08:06:44.555Z,58.79
2023-04-11T08:09:47.804Z,57.57
2023-04-11T08:12:50.894Z,58.67
2023-04-11T08:15:53.687Z,57.89
2023-04-11T08:18:57.379Z,58.69
2023-04-11T08:22:00.758Z,59.99
2023-04-11T08:25:03.816Z,59.90
2023-04-11T08:28:06.978Z,60.02
2023-04-11T08:31:10.654Z,64.82
2023-04-11T08:34:14.088Z,66.38
2023-04-11T08:37:16.707Z,68.03
2023-04-11T08:40:19.735Z,66.53
2023-04-11T08:43:22.554Z,64.91
2023-04-11T08:46:25.670Z,62.92
2023-04-11T08:49:28.238Z,61.91
2023-04-11T08:52:31.798Z,59.57
2023-04-11T08:55:34.363Z,60.94
2023-04-11T08:58:37.175Z,59.24
2023-04-11T09:01:40.893Z,59.35
2023-04-11T09:04:44.735Z,58.33
2023-04-11T09:07:50.347Z,57.09
2023-04-11T09:11:01.377Z,57.39
2023-04-11T09:14:11.267Z,57.13
2023-04-11T09:17:14.411Z,59.16
2023-04-11T09:20:18.025Z,60.43
2023-04-11T09:23:24.344Z,60.84
2023-04-11T09:26:29.972Z,59.70
2023-04-11T09:29:41.930Z,58.69
2023-04-11T09:32:44.584Z,58.95
2023-04-11T09:35:49.768Z,60.21
2023-04-11T09:38:52.498Z,58.59
2023-04-11T09:41:55.823Z,57.08
2023-04-11T09:44:58.763Z,56.49
2023-04-11T09:48:01.847Z,56.76
2023-04-11T09:51:07.974Z,54.25
2023-04-11T09:54:12.083Z,52.51
2023-04-11T09:57:14.972Z,47.89
2023-04-11T10:00:21.466Z,46.50
2023-04-11T10:03:26.401Z,45.55
2023-04-11T10:06:38.662Z,46.36
2023-04-11T10:09:43.520Z,46.24
2023-04-11T10:12:46.567Z,43.17
2023-04-11T10:16:08.513Z,40.78
2023-04-11T10:19:24.041Z,37.39
2023-04-11T10:22:44.106Z,39.56
2023-04-11T10:25:53.767Z,41.92
2023-04-11T10:28:56.635Z,43.05
2023-04-11T10:32:08.076Z,44.36
2023-04-11T10:35:16.971Z,44.69
2023-04-11T10:38:41.770Z,44.24
2023-04-11T10:41:45.656Z,42.46
2023-04-11T10:45:24.512Z,43.16
2023-04-11T10:48:27.448Z,44.06
2023-04-11T10:51:34.093Z,39.81
2023-04-11T10:54:36.963Z,36.76
2023-04-11T10:58:07.073Z,35.93
2023-04-11T11:01:25.989Z,37.60
2023-04-11T11:04:40.200Z,40.47
2023-04-11T11:07:46.934Z,41.85
2023-04-11T11:10:50.409Z,42.63
2023-04-11T11:13:56.053Z,43.69
2023-04-11T11:16:59.696Z,45.12
2023-04-11T11:20:10.212Z,42.38
2023-04-11T11:23:12.885Z,41.40
2023-04-11T11:26:15.824Z,39.09
2023-04-11T11:29:38.732Z,40.14
2023-04-11T11:32:41.643Z,42.39
2023-04-11T11:35:51.942Z,43.08
2023-04-11T11:38:55.467Z,42.70
2023-04-11T11:41:58.540Z,44.15
2023-04-11T11:45:18.323Z,43.93
2023-04-11T11:48:24.943Z,43.27
2023-04-11T11:51:41.462Z,43.52
2023-04-11T11:54:47.439Z,44.41
2023-04-11T12:01:35.239Z,42.78
2023-04-11T12:04:38.568Z,42.69
2023-04-11T12:07:41.467Z,42.05
2023-04-11T12:10:46.624Z,40.44
2023-04-11T12:13:52.758Z,42.83
2023-04-11T12:16:55.796Z,43.67
2023-04-11T12:19:58.355Z,43.51
2023-04-11T12:23:21.448Z,42.57
2023-04-11T12:26:25.340Z,41.92
2023-04-11T12:29:28.283Z,40.61
2023-04-11T12:32:33.121Z,40.46
2023-04-11T12:35:36.155Z,40.35
2023-04-11T12:38:38.789Z,38.99
2023-04-11T12:41:41.586Z,41.33
2023-04-11T12:44:44.671Z,42.65
2023-04-11T12:47:47.971Z,43.23
2023-04-11T12:50:50.698Z,41.87
2023-04-11T12:53:53.629Z,43.23
2023-04-11T12:56:58.423Z,44.45
2023-04-11T13:00:16.850Z,44.92
2023-04-11T13:03:19.838Z,45.29
2023-04-11T13:06:23.281Z,44.00
2023-04-11T13:09:26.214Z,44.51
2023-04-11T13:12:30.557Z,44.03
2023-04-11T13:15:33.449Z,44.46
2023-04-11T13:18:36.626Z,44.68
2023-04-11T13:21:39.575Z,44.13
2023-04-11T13:24:42.732Z,44.20
2023-04-11T13:27:45.779Z,44.26
2023-04-11T13:30:48.923Z,42.65
2023-04-11T13:33:52.624Z,43.03
2023-04-11T13:36:56.086Z,42.51
2023-04-11T13:39:59.288Z,44.47
2023-04-11T13:43:02.235Z,43.29
2023-04-11T13:46:05.401Z,43.25
2023-04-11T13:49:08.108Z,43.57
2023-04-11T13:55:56.624Z,42.49
2023-04-11T13:58:59.982Z,42.63
2023-04-11T14:02:02.757Z,42.80
2023-04-11T14:05:06.278Z,41.98
2023-04-11T14:08:08.873Z,39.46
2023-04-11T14:11:11.778Z,40.84
2023-04-11T14:14:14.405Z,40.37
2023-04-11T14:17:17.365Z,39.87
2023-04-11T14:20:20.515Z,40.90
2023-04-11T14:23:45.500Z,40.92
2023-04-11T14:26:50.042Z,42.62
2023-04-11T14:29:53.100Z,43.14
2023-04-11T14:32:56.437Z,44.34
2023-04-11T14:36:00.054Z,46.21
2023-04-11T14:39:05.122Z,47.36
2023-04-11T14:42:09.810Z,48.98
2023-04-11T14:45:12.561Z,50.51
2023-04-11T14:48:18.162Z,51.84
2023-04-11T14:51:21.319Z,53.13
2023-04-11T14:54:24.561Z,55.84
2023-04-11T14:57:46.503Z,58.25
2023-04-11T15:00:49.402Z,60.80
2023-04-11T15:04:01.732Z,63.22
2023-04-11T15:07:04.944Z,65.73
2023-04-11T15:10:08.272Z,68.58
2023-04-11T15:13:13.606Z,70.20
2023-04-11T15:16:17.986Z,71.13
2023-04-11T15:19:21.704Z,74.15
2023-04-11T15:22:24.449Z,77.83
2023-04-11T15:25:27.286Z,84.12
2023-04-11T15:28:33.061Z,89.23
2023-04-11T15:31:37.859Z,96.05
